Time;durP1;ratioP1;P1;durP2;ratioP2;P2;SDS_P1;SDS_P2;PMS_P1;PMS_P2;Temp;Humidity;BMP_temperature;BMP_pressure;BME280_temperature;BME280_humidity;BME280_pressure;Samples;Min_cycle;Max_cycle;Signal;HPM_P1;HPM_P2
2020/12/19 00:00:20;;;;;;;14.00;11.13;;;10.00;99.90;;;;;;4916693;29;20401;-66
2020/12/19 00:02:45;;;;;;;12.30;10.30;;;9.90;99.90;;;;;;4916560;29;20040;-65
2020/12/19 00:05:11;;;;;;;13.40;9.60;;;10.00;99.90;;;;;;4916643;29;20052;-65
2020/12/19 00:07:37;;;;;;;14.05;10.23;;;10.00;99.90;;;;;;4916644;29;20028;-65
2020/12/19 00:13:24;;;;;;;11.98;9.32;;;10.00;99.90;;;;;;4916783;29;20071;-66
2020/12/19 00:15:49;;;;;;;13.15;10.25;;;10.00;99.90;;;;;;4916253;29;20063;-65
2020/12/19 00:18:15;;;;;;;13.85;9.95;;;10.00;99.90;;;;;;4916281;29;20068;-65
2020/12/19 00:20:41;;;;;;;13.52;10.77;;;10.00;99.90;;;;;;4916303;29;20024;-64
2020/12/19 00:23:06;;;;;;;15.57;10.75;;;10.00;99.90;;;;;;4916443;29;20028;-66
2020/12/19 00:25:32;;;;;;;13.95;10.20;;;9.90;99.90;;;;;;4916423;29;20028;-66
2020/12/19 00:27:58;;;;;;;13.07;10.32;;;9.90;99.90;;;;;;4916203;29;20480;-67
2020/12/19 00:30:23;;;;;;;9.10;8.05;;;9.90;99.90;;;;;;4916113;29;20040;-66
2020/12/19 00:32:49;;;;;;;8.65;7.10;;;10.00;99.90;;;;;;4919493;29;20033;-65
2020/12/19 00:35:14;;;;;;;11.27;8.23;;;10.10;99.90;;;;;;4919774;29;20145;-66
2020/12/19 00:37:41;;;;;;;13.23;10.93;;;10.00;99.90;;;;;;4919991;29;20031;-66
2020/12/19 00:43:29;;;;;;;14.40;9.75;;;9.90;99.90;;;;;;4919908;29;20047;-66
2020/12/19 00:45:54;;;;;;;14.02;10.18;;;10.00;99.90;;;;;;4919664;29;20032;-66
2020/12/19 00:48:20;;;;;;;11.13;9.02;;;10.00;99.90;;;;;;4919946;29;20032;-66
2020/12/19 00:50:46;;;;;;;12.00;9.98;;;10.00;99.90;;;;;;4919504;29;20063;-66
2020/12/19 00:53:11;;;;;;;13.25;9.30;;;10.00;99.90;;;;;;4902544;29;20031;-65
2020/12/19 00:58:59;;;;;;;12.32;9.85;;;10.00;99.90;;;;;;4913239;29;20111;-66
2020/12/19 01:01:25;;;;;;;13.80;10.43;;;10.00;99.90;;;;;;4919545;29;20111;-65
2020/12/19 01:03:56;;;;;;;14.77;11.20;;;10.00;99.90;;;;;;4919491;29;20024;-66
2020/12/19 01:06:23;;;;;;;12.90;9.73;;;9.90;99.90;;;;;;4919612;29;20025;-65
2020/12/19 01:08:50;;;;;;;14.95;11.30;;;10.00;99.90;;;;;;4919445;29;20036;-66
2020/12/19 01:11:18;;;;;;;16.90;10.95;;;10.00;99.90;;;;;;4919470;29;20068;-66
2020/12/19 01:13:44;;;;;;;10.98;9.10;;;10.00;99.90;;;;;;4919319;29;20024;-65
2020/12/19 01:16:15;;;;;;;13.63;10.35;;;10.00;99.90;;;;;;4919234;29;20028;-66
2020/12/19 01:18:44;;;;;;;12.27;9.00;;;10.00;99.90;;;;;;4919148;29;20100;-67
2020/12/19 01:21:21;;;;;;;14.48;11.02;;;10.00;99.90;;;;;;4919399;29;20392;-67
2020/12/19 01:23:47;;;;;;;14.25;10.88;;;10.00;99.90;;;;;;4918906;29;20047;-67
2020/12/19 01:26:14;;;;;;;10.07;8.32;;;9.90;99.90;;;;;;4919137;29;20115;-67
2020/12/19 01:28:40;;;;;;;13.43;9.23;;;10.00;99.90;;;;;;4919077;29;20059;-67
2020/12/19 01:31:11;;;;;;;14.23;10.65;;;9.90;99.90;;;;;;4919068;29;20044;-68
2020/12/19 01:33:38;;;;;;;14.48;11.55;;;9.90;99.90;;;;;;4918720;29;20028;-69
2020/12/19 01:36:09;;;;;;;16.10;12.13;;;10.00;99.90;;;;;;4918729;29;20567;-68
2020/12/19 01:38:35;;;;;;;14.35;10.95;;;10.00;99.90;;;;;;4918759;29;20028;-65
2020/12/19 01:41:00;;;;;;;14.02;11.13;;;9.90;99.90;;;;;;4918919;29;20029;-66
2020/12/19 01:43:26;;;;;;;12.15;9.90;;;10.00;99.90;;;;;;4917765;29;20099;-66
2020/12/19 01:45:51;;;;;;;16.15;13.63;;;10.00;99.90;;;;;;4918622;29;20067;-66
2020/12/19 01:48:23;;;;;;;14.35;10.75;;;9.90;99.90;;;;;;4918488;29;20119;-65
2020/12/19 01:50:50;;;;;;;15.13;10.77;;;10.00;99.90;;;;;;4918650;29;20062;-65
2020/12/19 01:53:20;;;;;;;13.45;10.15;;;10.00;99.90;;;;;;4918749;29;20032;-66
2020/12/19 01:59:08;;;;;;;12.40;8.82;;;10.00;99.90;;;;;;4917770;29;20148;-66
2020/12/19 02:01:41;;;;;;;13.93;9.70;;;10.00;99.90;;;;;;4918290;29;20107;-67
2020/12/19 02:04:07;;;;;;;11.25;9.30;;;10.00;99.90;;;;;;4918269;29;20024;-67
2020/12/19 02:06:32;;;;;;;16.15;11.43;;;10.10;99.90;;;;;;4918195;29;20040;-66
2020/12/19 02:08:58;;;;;;;16.88;12.30;;;10.00;99.90;;;;;;4918207;29;20032;-67
2020/12/19 02:11:24;;;;;;;15.00;12.32;;;10.00;99.90;;;;;;4918318;29;20039;-67
2020/12/19 02:13:50;;;;;;;15.00;10.70;;;9.90;99.90;;;;;;4918379;29;20111;-68
2020/12/19 02:16:19;;;;;;;14.35;10.20;;;9.90;99.90;;;;;;4918057;29;20510;-68
2020/12/19 02:18:45;;;;;;;15.27;10.98;;;10.00;99.90;;;;;;4918162;29;20035;-66
2020/12/19 02:21:11;;;;;;;17.05;12.32;;;10.00;99.90;;;;;;4918255;29;20036;-66
2020/12/19 02:23:37;;;;;;;15.63;11.25;;;10.00;99.90;;;;;;4918225;29;20160;-67
2020/12/19 02:29:27;;;;;;;15.98;12.18;;;9.90;99.90;;;;;;4918442;29;20115;-69
2020/12/19 02:31:54;;;;;;;14.80;12.02;;;9.90;99.90;;;;;;4918035;29;20441;-69
2020/12/19 02:34:20;;;;;;;13.77;9.77;;;9.90;99.90;;;;;;4917994;29;20145;-67
2020/12/19 02:36:46;;;;;;;16.65;11.18;;;9.90;99.90;;;;;;4917667;29;20270;-68
2020/12/19 02:39:12;;;;;;;15.00;11.50;;;9.90;99.90;;;;;;4917863;29;20028;-68
2020/12/19 02:41:39;;;;;;;14.85;10.65;;;9.90;99.90;;;;;;4917205;29;20477;-67
2020/12/19 02:44:06;;;;;;;13.35;10.20;;;9.90;99.90;;;;;;4918022;29;20081;-66
2020/12/19 02:46:32;;;;;;;14.88;10.73;;;9.90;99.90;;;;;;4917453;29;20421;-67
2020/12/19 02:48:58;;;;;;;14.10;10.50;;;9.90;99.90;;;;;;4917713;29;20201;-66
2020/12/19 02:51:23;;;;;;;15.60;10.73;;;10.00;99.90;;;;;;4917681;29;20499;-66
2020/12/19 02:53:49;;;;;;;14.63;10.95;;;10.00;99.90;;;;;;4917444;29;20428;-67
2020/12/19 02:56:15;;;;;;;13.68;11.23;;;10.00;99.90;;;;;;4917376;29;20032;-68
2020/12/19 02:58:40;;;;;;;14.02;10.77;;;10.10;99.90;;;;;;4917366;29;20055;-69
2020/12/19 03:01:06;;;;;;;13.52;10.63;;;10.10;99.90;;;;;;4917163;29;20063;-68
2020/12/19 03:03:32;;;;;;;12.95;9.82;;;10.10;99.90;;;;;;4917252;29;20111;-68
2020/12/19 03:05:58;;;;;;;10.13;8.50;;;10.10;99.90;;;;;;4917248;29;20039;-68
2020/12/19 03:08:24;;;;;;;11.90;9.52;;;10.20;99.90;;;;;;4917257;29;20028;-68
2020/12/19 03:14:11;;;;;;;12.77;10.38;;;10.20;99.90;;;;;;4917351;29;20075;-68
2020/12/19 03:16:37;;;;;;;12.95;9.55;;;10.20;99.90;;;;;;4916961;29;20024;-68
2020/12/19 03:19:03;;;;;;;12.25;9.13;;;10.30;99.90;;;;;;4917247;29;20039;-68
2020/12/19 03:21:29;;;;;;;12.20;10.02;;;10.20;99.90;;;;;;4917273;29;20024;-66
2020/12/19 03:23:55;;;;;;;12.52;9.93;;;10.30;99.90;;;;;;4917243;29;20043;-68
2020/12/19 03:26:20;;;;;;;14.02;10.25;;;10.30;99.90;;;;;;4917119;29;20051;-67
2020/12/19 03:28:46;;;;;;;13.25;9.02;;;10.30;99.90;;;;;;4899933;29;20032;-67
2020/12/19 03:31:12;;;;;;;13.57;10.43;;;10.40;99.90;;;;;;4916753;29;20047;-67
2020/12/19 03:33:38;;;;;;;12.82;9.77;;;10.30;99.90;;;;;;4917270;29;20028;-68
2020/12/19 03:36:03;;;;;;;14.70;10.68;;;10.40;99.90;;;;;;4917025;29;20489;-68
2020/12/19 03:38:29;;;;;;;12.10;8.95;;;10.40;99.90;;;;;;4916921;29;20028;-68
2020/12/19 03:44:16;;;;;;;10.63;8.27;;;10.50;99.90;;;;;;4917039;29;20131;-68
2020/12/19 03:46:42;;;;;;;12.35;9.60;;;10.50;99.90;;;;;;4916729;29;20056;-67
2020/12/19 03:49:08;;;;;;;11.27;8.88;;;10.50;99.90;;;;;;4916900;29;20428;-67
2020/12/19 03:51:34;;;;;;;11.75;8.32;;;10.50;99.90;;;;;;4916811;29;20547;-66
2020/12/19 03:54:00;;;;;;;10.73;8.63;;;10.50;99.90;;;;;;4916541;29;20031;-67
2020/12/19 03:59:47;;;;;;;14.23;10.43;;;10.60;99.90;;;;;;4909936;29;20473;-66
2020/12/19 04:02:13;;;;;;;13.57;8.40;;;10.60;99.90;;;;;;4916625;29;20028;-67
2020/12/19 04:04:38;;;;;;;10.35;7.93;;;10.60;99.90;;;;;;4899563;29;20066;-66
2020/12/19 04:07:04;;;;;;;12.70;8.63;;;10.60;99.90;;;;;;4918993;29;20028;-67
2020/12/19 04:09:30;;;;;;;11.57;8.48;;;10.70;99.90;;;;;;4920237;29;20040;-67
2020/12/19 04:11:56;;;;;;;12.60;8.82;;;10.70;99.90;;;;;;4920539;29;20131;-69
2020/12/19 04:14:21;;;;;;;10.82;8.43;;;10.70;99.90;;;;;;4920151;29;20052;-68
2020/12/19 04:16:48;;;;;;;13.65;10.30;;;10.70;99.90;;;;;;4920402;29;20043;-68
2020/12/19 04:19:13;;;;;;;12.70;9.05;;;10.70;99.90;;;;;;4920481;29;20035;-68
2020/12/19 04:21:39;;;;;;;11.25;8.27;;;10.70;99.90;;;;;;4920449;29;20103;-68
2020/12/19 04:24:05;;;;;;;11.15;8.35;;;10.80;99.90;;;;;;4920366;29;20028;-68
2020/12/19 04:29:53;;;;;;;11.95;9.07;;;10.80;99.90;;;;;;4920389;29;20102;-67
2020/12/19 04:32:18;;;;;;;12.18;8.90;;;10.80;99.90;;;;;;4920264;29;20028;-67
2020/12/19 04:34:44;;;;;;;14.52;9.57;;;10.80;99.90;;;;;;4920110;29;20024;-66
2020/12/19 04:37:10;;;;;;;9.25;6.93;;;10.80;99.90;;;;;;4919814;29;20118;-67
2020/12/19 04:39:35;;;;;;;13.43;9.30;;;10.90;99.90;;;;;;4920168;29;20032;-67
2020/12/19 04:42:01;;;;;;;11.48;8.43;;;10.90;99.90;;;;;;4919837;29;20028;-67
2020/12/19 04:44:27;;;;;;;10.23;7.65;;;10.90;99.90;;;;;;4919712;29;20028;-67
2020/12/19 04:46:53;;;;;;;12.18;8.20;;;10.90;99.90;;;;;;4919930;29;20083;-67
2020/12/19 04:49:20;;;;;;;13.98;9.90;;;10.90;99.90;;;;;;4919903;29;20028;-67
2020/12/19 04:51:46;;;;;;;13.32;9.98;;;10.90;99.90;;;;;;4919802;29;20050;-67
2020/12/19 04:54:12;;;;;;;10.80;7.88;;;10.90;99.90;;;;;;4919907;29;20039;-67
2020/12/19 04:59:59;;;;;;;11.60;8.55;;;10.90;99.90;;;;;;4917086;29;20059;-67
2020/12/19 05:02:25;;;;;;;13.30;9.15;;;10.90;99.90;;;;;;4919635;29;20040;-67
2020/12/19 05:04:50;;;;;;;12.82;8.88;;;10.90;99.90;;;;;;4919722;29;20024;-67
2020/12/19 05:07:16;;;;;;;12.40;8.25;;;10.90;99.90;;;;;;4919634;29;20051;-68
2020/12/19 05:09:43;;;;;;;11.45;8.45;;;10.90;99.90;;;;;;4919650;29;20051;-68
2020/12/19 05:12:11;;;;;;;9.77;7.30;;;11.00;99.90;;;;;;4919131;29;20040;-69
2020/12/19 05:14:37;;;;;;;11.98;8.50;;;10.90;99.90;;;;;;4902522;29;20099;-69
2020/12/19 05:17:03;;;;;;;11.65;8.82;;;10.90;99.90;;;;;;4918876;29;20028;-69
2020/12/19 05:19:29;;;;;;;15.65;10.15;;;10.80;99.90;;;;;;4919030;29;20079;-68
2020/12/19 05:21:56;;;;;;;14.80;9.98;;;10.70;99.90;;;;;;4919292;29;20028;-68
2020/12/19 05:31:10;;;;;;;12.52;8.50;;;10.80;99.90;;;;;;4823952;29;20099;-68
2020/12/19 05:33:36;;;;;;;12.27;8.85;;;10.80;99.90;;;;;;4823976;29;20395;-66
2020/12/19 05:36:03;;;;;;;11.73;8.77;;;10.70;99.90;;;;;;4823984;29;20083;-68
2020/12/19 05:38:30;;;;;;;13.77;7.93;;;10.70;99.90;;;;;;4823895;29;20038;-68
2020/12/19 05:40:58;;;;;;;11.30;7.90;;;10.70;99.90;;;;;;4823803;29;20062;-68
2020/12/19 05:43:24;;;;;;;12.02;8.18;;;10.80;99.90;;;;;;4823777;29;20034;-68
2020/12/19 05:45:50;;;;;;;10.98;8.60;;;10.80;99.90;;;;;;4823729;29;20042;-68
2020/12/19 05:48:16;;;;;;;11.80;7.70;;;10.80;99.90;;;;;;4823767;29;20049;-67
2020/12/19 05:50:42;;;;;;;12.32;8.20;;;10.70;99.90;;;;;;4823583;29;20463;-67
2020/12/19 05:53:09;;;;;;;11.30;7.68;;;10.70;99.90;;;;;;4823636;29;20118;-68
2020/12/19 05:55:35;;;;;;;13.40;9.50;;;10.80;99.90;;;;;;4823565;29;20087;-70
2020/12/19 05:58:04;;;;;;;15.10;9.10;;;10.70;99.90;;;;;;4823493;29;20498;-68
2020/12/19 06:00:31;;;;;;;11.27;7.80;;;10.80;99.90;;;;;;4823191;29;20129;-68
2020/12/19 06:03:00;;;;;;;11.80;8.02;;;10.80;99.90;;;;;;4823579;29;20042;-67
2020/12/19 06:05:28;;;;;;;13.15;8.18;;;10.80;99.90;;;;;;4899598;29;20388;-67
2020/12/19 06:07:55;;;;;;;10.80;6.95;;;10.90;99.90;;;;;;4899618;29;20160;-68
2020/12/19 06:10:20;;;;;;;9.30;7.10;;;10.90;99.90;;;;;;4899062;29;20425;-68
2020/12/19 06:13:11;;;;;;;11.95;7.57;;;10.90;99.90;;;;;;4899440;29;20032;-68
2020/12/19 06:15:59;;;;;;;11.90;8.27;;;10.80;99.90;;;;;;4899134;29;20036;-68
2020/12/19 06:18:47;;;;;;;13.20;8.32;;;10.80;99.90;;;;;;4899268;29;20032;-68
2020/12/19 06:21:13;;;;;;;11.77;8.73;;;10.80;99.90;;;;;;4899583;29;20381;-68
2020/12/19 06:23:40;;;;;;;11.00;7.90;;;10.70;99.90;;;;;;4899662;29;20116;-68
2020/12/19 06:26:06;;;;;;;13.07;9.00;;;10.70;99.90;;;;;;4899513;29;20029;-69
2020/12/19 06:28:44;;;;;;;12.65;8.90;;;10.60;99.90;;;;;;4898617;29;20072;-68
2020/12/19 06:31:18;;;;;;;12.90;8.68;;;10.60;99.90;;;;;;4898856;29;20500;-67
2020/12/19 06:33:47;;;;;;;;;;;10.60;99.90;;;;;;4899500;29;20382;-68
2020/12/19 06:36:16;;;;;;;12.82;8.85;;;10.50;99.90;;;;;;4899342;29;20276;-68
2020/12/19 06:38:53;;;;;;;10.45;7.55;;;10.50;99.90;;;;;;4899307;29;20032;-69
2020/12/19 06:41:41;;;;;;;11.63;7.57;;;10.50;99.90;;;;;;4899029;29;20048;-69
2020/12/19 06:44:10;;;;;;;9.82;7.00;;;10.50;99.90;;;;;;4898560;29;20024;-69
2020/12/19 06:46:36;;;;;;;10.82;7.40;;;10.50;99.90;;;;;;4898878;29;20101;-69
2020/12/19 06:49:22;;;;;;;12.15;8.73;;;10.60;99.90;;;;;;4898845;29;20056;-68
2020/12/19 06:52:01;;;;;;;13.52;8.40;;;10.50;99.90;;;;;;4898321;29;20033;-69
2020/12/19 06:54:29;;;;;;;12.25;8.50;;;10.50;99.90;;;;;;4898658;29;20469;-69
2020/12/19 06:56:54;;;;;;;12.82;9.13;;;10.40;99.90;;;;;;4898425;29;20032;-69
2020/12/19 06:59:24;;;;;;;12.13;7.97;;;10.50;99.90;;;;;;4903340;29;20048;-69
2020/12/19 07:01:50;;;;;;;8.93;7.13;;;10.50;99.90;;;;;;4917259;29;20039;-68
2020/12/19 07:04:34;;;;;;;9.98;7.20;;;10.50;99.90;;;;;;4917301;29;20083;-68
2020/12/19 07:07:05;;;;;;;9.00;6.78;;;10.60;99.90;;;;;;4917269;29;20032;-68
2020/12/19 07:09:31;;;;;;;10.85;7.47;;;10.60;99.90;;;;;;4917361;29;20032;-68
2020/12/19 07:11:57;;;;;;;11.88;6.95;;;10.60;99.90;;;;;;4917189;29;20380;-69
2020/12/19 07:14:23;;;;;;;12.45;7.90;;;10.60;99.90;;;;;;4917190;29;20020;-69
2020/12/19 07:16:53;;;;;;;10.70;7.30;;;10.60;99.90;;;;;;4917247;29;20032;-69
2020/12/19 07:19:26;;;;;;;10.65;7.72;;;10.60;99.90;;;;;;4917218;29;20024;-68
2020/12/19 07:21:57;;;;;;;9.40;5.85;;;10.70;99.90;;;;;;4916890;29;20027;-67
2020/12/19 07:24:24;;;;;;;8.20;6.40;;;10.80;99.90;;;;;;4917099;29;20039;-69
2020/12/19 07:26:51;;;;;;;7.85;6.05;;;10.80;99.90;;;;;;4917089;29;20420;-69
2020/12/19 07:29:18;;;;;;;8.32;5.88;;;10.80;99.90;;;;;;4916873;29;20147;-69
2020/12/19 07:31:52;;;;;;;9.30;6.68;;;10.90;99.90;;;;;;4916996;29;20036;-68
2020/12/19 07:34:19;;;;;;;10.65;7.65;;;10.90;99.90;;;;;;4917059;29;20516;-68
2020/12/19 07:36:46;;;;;;;8.32;6.50;;;10.80;99.90;;;;;;4916851;29;20103;-67
2020/12/19 07:39:14;;;;;;;8.82;6.28;;;10.90;99.90;;;;;;4916614;29;20167;-68
2020/12/19 07:41:43;;;;;;;12.10;7.40;;;10.90;99.90;;;;;;4916056;29;20389;-68
2020/12/19 07:44:18;;;;;;;13.02;8.27;;;10.90;99.90;;;;;;4916828;29;20103;-68
2020/12/19 07:47:06;;;;;;;10.35;7.57;;;10.90;99.90;;;;;;4916899;29;20028;-68
2020/12/19 07:49:47;;;;;;;8.80;7.28;;;10.90;99.90;;;;;;4916958;29;20028;-68
2020/12/19 07:52:22;;;;;;;13.98;6.95;;;10.90;99.90;;;;;;4916855;29;20409;-68
2020/12/19 07:54:52;;;;;;;10.02;6.20;;;10.80;99.90;;;;;;4916450;29;20024;-69
2020/12/19 07:57:18;;;;;;;9.88;6.32;;;10.90;99.90;;;;;;4916469;29;20032;-69
2020/12/19 07:59:44;;;;;;;9.70;6.05;;;10.90;99.90;;;;;;4916358;29;20055;-67
2020/12/19 08:02:13;;;;;;;10.65;6.82;;;10.80;99.90;;;;;;4916811;29;20033;-66
2020/12/19 08:04:39;;;;;;;8.88;6.00;;;10.80;99.90;;;;;;4916770;29;20402;-68
2020/12/19 08:07:05;;;;;;;9.82;6.38;;;10.80;99.90;;;;;;4916704;29;20029;-67
2020/12/19 08:09:30;;;;;;;11.15;6.57;;;10.80;99.90;;;;;;4916812;29;20029;-67
2020/12/19 08:12:00;;;;;;;12.85;6.65;;;10.80;99.90;;;;;;4916575;29;20449;-67
2020/12/19 08:14:27;;;;;;;10.73;6.45;;;10.80;99.90;;;;;;4916572;29;20036;-67
2020/12/19 08:16:54;;;;;;;7.60;5.55;;;10.80;99.90;;;;;;4916624;29;20038;-68
2020/12/19 08:19:38;;;;;;;8.90;5.35;;;10.80;99.90;;;;;;4899341;29;20052;-68
2020/12/19 08:22:05;;;;;;;10.23;6.03;;;10.80;99.90;;;;;;4916201;29;20501;-68
2020/12/19 08:24:32;;;;;;;8.75;5.95;;;10.80;99.90;;;;;;4916405;29;20100;-67
2020/12/19 08:27:28;;;;;;;8.50;5.75;;;10.90;99.90;;;;;;4916420;29;20111;-68
2020/12/19 08:30:32;;;;;;;7.82;5.75;;;10.90;99.90;;;;;;4916176;29;20039;-67
2020/12/19 08:33:03;;;;;;;10.05;5.97;;;11.00;99.90;;;;;;4891687;29;20048;-69
2020/12/19 08:35:35;;;;;;;8.07;5.60;;;11.00;99.90;;;;;;4916259;29;20040;-68
2020/12/19 08:38:06;;;;;;;9.95;5.68;;;10.90;99.90;;;;;;4916215;29;20160;-66
2020/12/19 08:43:53;;;;;;;8.52;5.07;;;10.80;99.90;;;;;;4916062;29;20031;-68
2020/12/19 08:46:19;;;;;;;7.88;5.00;;;10.80;99.90;;;;;;4915967;29;20032;-68
2020/12/19 08:48:46;;;;;;;9.75;5.15;;;10.80;99.90;;;;;;4915399;29;20148;-68
2020/12/19 08:51:19;;;;;;;7.57;5.07;;;10.70;99.90;;;;;;4915571;29;20040;-68
2020/12/19 08:53:45;;;;;;;8.88;5.38;;;10.70;99.90;;;;;;4919156;29;20204;-68
2020/12/19 08:59:33;;;;;;;8.85;5.82;;;13.20;99.90;;;;;;4919496;29;20510;-73
2020/12/19 09:01:59;;;;;;;11.98;10.05;;;13.40;99.90;;;;;;4919529;29;20032;-70
2020/12/19 09:04:24;;;;;;;8.75;4.35;;;12.10;99.90;;;;;;4918950;29;20028;-70
2020/12/19 09:06:54;;;;;;;7.10;5.10;;;11.50;99.90;;;;;;4919018;29;20036;-70
2020/12/19 09:09:28;;;;;;;7.50;4.95;;;11.40;99.90;;;;;;4919694;29;20393;-69
2020/12/19 09:14:56;;;;;;;7.93;4.68;;;11.20;99.90;;;;;;4919188;29;19955;-70
2020/12/19 09:17:29;;;;;;;6.95;4.55;;;11.10;99.90;;;;;;4918629;29;20029;-69
2020/12/19 09:20:05;;;;;;;8.43;4.55;;;11.00;99.90;;;;;;4918682;29;20531;-69
2020/12/19 09:22:31;;;;;;;10.80;4.43;;;11.00;99.90;;;;;;4919292;29;20047;-69
2020/12/19 09:24:56;;;;;;;9.50;4.88;;;10.90;99.90;;;;;;4918876;29;20540;-69
2020/12/19 09:30:44;;;;;;;6.78;4.40;;;10.90;99.90;;;;;;4919052;29;20039;-69
2020/12/19 14:03:41;;;;;;;7.53;3.80;;;12.50;99.90;;;;;;5065278;27;20403;-74
2020/12/19 14:06:07;;;;;;;6.38;3.45;;;12.60;99.90;;;;;;5054705;28;20480;-76
2020/12/19 14:08:33;;;;;;;7.25;3.60;;;12.70;99.90;;;;;;5053702;28;20048;-76
2020/12/19 14:10:58;;;;;;;6.80;3.25;;;12.90;99.90;;;;;;5047393;28;20025;-75
2020/12/19 14:13:24;;;;;;;8.40;3.13;;;13.20;99.90;;;;;;5052885;28;20067;-75
2020/12/19 14:15:49;;;;;;;10.05;3.35;;;13.40;99.90;;;;;;5054237;28;20427;-74
2020/12/19 14:18:15;;;;;;;13.68;3.28;;;13.60;99.90;;;;;;5056650;28;20465;-73
2020/12/19 14:20:42;;;;;;;10.20;3.35;;;13.70;99.90;;;;;;5065353;28;20440;-74
2020/12/19 14:23:09;;;;;;;5.28;2.85;;;13.60;99.90;;;;;;5051873;28;20029;-74
2020/12/19 14:25:35;;;;;;;7.15;3.38;;;13.30;99.90;;;;;;5049073;28;20116;-74
2020/12/19 14:28:01;;;;;;;6.00;3.10;;;13.30;99.90;;;;;;5065023;28;20346;-74
2020/12/19 14:30:26;;;;;;;6.03;2.80;;;13.30;99.90;;;;;;5053873;28;20028;-75
2020/12/19 14:32:52;;;;;;;6.03;3.50;;;13.50;99.90;;;;;;5058842;28;20052;-76
2020/12/19 14:35:18;;;;;;;7.53;2.78;;;13.60;99.90;;;;;;5059861;28;20033;-75
2020/12/19 14:37:44;;;;;;;4.70;2.60;;;13.80;99.90;;;;;;5051484;28;20141;-75
2020/12/19 14:40:10;;;;;;;6.40;2.88;;;13.70;99.90;;;;;;5058852;28;20547;-75
2020/12/19 14:42:41;;;;;;;5.45;2.40;;;13.90;99.90;;;;;;5063121;28;20086;-76
2020/12/19 14:45:09;;;;;;;5.97;2.92;;;14.00;99.90;;;;;;5054082;28;20338;-75
2020/12/19 14:47:35;;;;;;;5.93;2.95;;;14.10;99.90;;;;;;5048333;28;20087;-75
2020/12/19 14:50:01;;;;;;;6.93;2.67;;;14.10;99.90;;;;;;5054799;28;20029;-76
2020/12/19 14:52:27;;;;;;;6.32;2.63;;;14.10;99.90;;;;;;5058024;28;20040;-78
2020/12/19 14:54:53;;;;;;;5.32;2.70;;;14.10;99.90;;;;;;5056362;28;20056;-77
2020/12/19 14:57:18;;;;;;;6.43;2.60;;;13.60;99.90;;;;;;5053652;28;20032;-73
2020/12/19 14:59:44;;;;;;;9.27;3.08;;;13.60;99.90;;;;;;5052734;28;20171;-80
2020/12/19 15:02:10;;;;;;;7.07;2.72;;;13.10;99.90;;;;;;5049778;28;20052;-78
2020/12/19 15:04:35;;;;;;;6.32;2.80;;;12.90;99.90;;;;;;5056633;28;20039;-76
2020/12/19 15:07:01;;;;;;;8.75;2.80;;;12.90;99.90;;;;;;5047455;28;20021;-75
2020/12/19 15:09:27;;;;;;;5.85;3.10;;;12.60;99.90;;;;;;5056116;28;20025;-75
2020/12/19 15:11:53;;;;;;;7.53;4.20;;;12.60;99.90;;;;;;5048950;28;20488;-75
2020/12/19 15:14:19;;;;;;;5.68;3.15;;;12.40;99.90;;;;;;5047311;28;20032;-74
2020/12/19 15:16:44;;;;;;;8.70;3.10;;;12.20;99.90;;;;;;5020152;28;20022;-74
2020/12/19 15:19:10;;;;;;;6.00;3.08;;;12.00;99.90;;;;;;5051446;28;20048;-75
2020/12/19 15:21:36;;;;;;;5.55;2.90;;;11.90;99.90;;;;;;5042933;28;20021;-73
2020/12/19 15:24:02;;;;;;;8.98;3.38;;;11.90;99.90;;;;;;5049650;28;20071;-73
2020/12/19 15:26:29;;;;;;;9.40;3.58;;;11.90;99.90;;;;;;5036356;28;20021;-74
2020/12/19 15:28:56;;;;;;;10.98;3.90;;;11.80;99.90;;;;;;5035930;28;20032;-74
2020/12/19 15:31:22;;;;;;;8.75;3.50;;;11.70;99.90;;;;;;5045994;28;20029;-73
2020/12/19 15:33:48;;;;;;;7.82;3.63;;;11.60;99.90;;;;;;5045124;28;20500;-73
2020/12/19 15:36:14;;;;;;;11.10;3.95;;;11.50;99.90;;;;;;5038408;28;20445;-75
2020/12/19 15:38:40;;;;;;;11.38;3.97;;;11.50;99.90;;;;;;5043666;28;20033;-73
2020/12/19 15:41:10;;;;;;;10.68;4.30;;;11.50;99.90;;;;;;5038187;28;20052;-73
2020/12/19 15:43:36;;;;;;;8.02;4.15;;;11.30;99.90;;;;;;5043496;28;20395;-75
2020/12/19 15:46:04;;;;;;;9.23;4.18;;;11.10;99.90;;;;;;5039765;28;20027;-73
2020/12/19 15:48:30;;;;;;;11.15;4.35;;;11.10;99.90;;;;;;5046798;28;20421;-73
2020/12/19 15:50:55;;;;;;;7.38;3.83;;;11.10;99.90;;;;;;5033838;28;20029;-73
2020/12/19 15:53:21;;;;;;;12.00;4.00;;;11.10;99.90;;;;;;5038872;28;20036;-74
2020/12/19 15:55:50;;;;;;;6.97;3.83;;;11.00;99.90;;;;;;5033955;28;20017;-79
2020/12/19 15:58:16;;;;;;;9.93;4.40;;;11.00;99.90;;;;;;5042607;28;20492;-77
2020/12/19 16:00:41;;;;;;;9.98;4.03;;;11.10;99.90;;;;;;5044942;28;20056;-79
2020/12/19 16:03:07;;;;;;;10.27;4.85;;;11.00;99.90;;;;;;5037862;28;20392;-78
2020/12/19 16:05:33;;;;;;;11.57;4.20;;;10.90;99.90;;;;;;5041999;28;20651;-77
2020/12/19 16:07:58;;;;;;;11.52;4.28;;;10.90;99.90;;;;;;5037983;28;20416;-77
2020/12/19 16:10:24;;;;;;;8.52;3.63;;;10.80;99.90;;;;;;5036975;28;20021;-78
2020/12/19 16:12:49;;;;;;;7.50;4.05;;;10.80;99.90;;;;;;5046494;28;20033;-75
2020/12/19 16:15:15;;;;;;;9.40;4.68;;;10.90;99.90;;;;;;5033738;28;20060;-77
2020/12/19 16:17:41;;;;;;;12.63;4.22;;;10.80;99.90;;;;;;5042003;28;20488;-78
2020/12/19 16:20:06;;;;;;;8.55;4.47;;;10.70;99.90;;;;;;5053904;28;20392;-78
2020/12/19 16:22:33;;;;;;;12.13;4.90;;;10.60;99.90;;;;;;5062471;28;20051;-79
2020/12/19 16:24:58;;;;;;;19.13;10.18;;;10.70;99.90;;;;;;5034447;28;20025;-78
2020/12/19 16:27:24;;;;;;;11.50;6.03;;;10.70;99.90;;;;;;5042932;28;20558;-76
2020/12/19 16:29:50;;;;;;;16.05;6.57;;;10.60;99.90;;;;;;5040657;28;20025;-77
2020/12/19 16:32:15;;;;;;;13.50;6.30;;;10.60;99.90;;;;;;5040281;28;20086;-76
2020/12/19 16:34:41;;;;;;;9.98;5.30;;;10.60;99.90;;;;;;5041639;28;20017;-76
2020/12/19 16:37:08;;;;;;;11.65;5.10;;;10.60;99.90;;;;;;5033233;28;20024;-78
2020/12/19 16:39:34;;;;;;;13.50;6.10;;;10.60;99.90;;;;;;5029154;28;20030;-77
2020/12/19 16:42:00;;;;;;;10.80;5.60;;;10.50;99.90;;;;;;5032984;28;20033;-78
2020/12/19 16:44:26;;;;;;;14.40;5.65;;;10.50;99.90;;;;;;5032789;28;20130;-78
2020/12/19 16:46:52;;;;;;;13.95;6.35;;;10.50;99.90;;;;;;5034919;28;20112;-77
2020/12/19 16:49:17;;;;;;;12.93;6.72;;;10.60;99.90;;;;;;5043646;28;20049;-78
2020/12/19 16:51:44;;;;;;;14.88;7.20;;;10.50;99.90;;;;;;5036576;28;20385;-78
2020/12/19 16:54:13;;;;;;;16.00;8.05;;;10.60;99.90;;;;;;5036930;28;20041;-77
2020/12/19 16:56:39;;;;;;;14.07;7.28;;;10.50;99.90;;;;;;5034384;28;20037;-78
2020/12/19 16:59:05;;;;;;;14.27;7.75;;;10.40;99.90;;;;;;5032696;28;20060;-79
2020/12/19 17:01:39;;;;;;;18.13;8.57;;;10.40;99.90;;;;;;5036277;28;20057;-76
2020/12/19 17:04:05;;;;;;;;;;;10.40;99.90;;;;;;5036407;28;20068;-78
2020/12/19 17:06:31;;;;;;;15.98;8.00;;;10.30;99.90;;;;;;5034479;28;19905;-77
2020/12/19 17:08:57;;;;;;;16.02;8.32;;;10.40;99.90;;;;;;5041535;28;20626;-78
2020/12/19 17:11:24;;;;;;;15.90;8.00;;;10.30;99.90;;;;;;5040728;28;20029;-77
2020/12/19 17:13:50;;;;;;;16.67;9.02;;;10.40;99.90;;;;;;5039882;28;20029;-75
2020/12/19 17:16:20;;;;;;;16.63;8.35;;;10.30;99.90;;;;;;5042507;28;20506;-75
2020/12/19 17:18:46;;;;;;;17.27;8.40;;;10.30;99.90;;;;;;5015831;28;20362;-73
2020/12/19 17:21:33;;;;;;;17.08;9.00;;;10.30;99.90;;;;;;5036057;28;20534;-74
2020/12/19 17:24:00;;;;;;;19.70;9.30;;;10.30;99.90;;;;;;5035610;28;20068;-74
2020/12/19 17:26:37;;;;;;;14.65;8.07;;;10.50;99.90;;;;;;5044390;28;20496;-74
2020/12/19 17:29:04;;;;;;;14.30;7.55;;;10.60;99.90;;;;;;5022041;28;20480;-75
2020/12/19 17:31:30;;;;;;;15.57;7.60;;;10.70;99.90;;;;;;5035514;28;20041;-76
2020/12/19 17:33:57;;;;;;;14.07;7.20;;;10.70;99.90;;;;;;5046259;28;20115;-75
2020/12/19 17:36:23;;;;;;;14.88;7.47;;;10.70;99.90;;;;;;5035012;28;20056;-74
2020/12/19 17:38:49;;;;;;;14.05;7.47;;;10.70;99.90;;;;;;5048199;28;20080;-74
2020/12/19 17:41:26;;;;;;;11.70;7.00;;;10.70;99.90;;;;;;5052656;28;20071;-75
2020/12/19 17:43:52;;;;;;;11.65;6.68;;;10.70;99.90;;;;;;5052892;28;20032;-74
2020/12/19 17:46:18;;;;;;;12.77;6.78;;;10.80;99.90;;;;;;5052805;28;20052;-74
2020/12/19 17:48:44;;;;;;;15.30;7.18;;;10.80;99.90;;;;;;5052723;28;20036;-73
2020/12/19 17:51:10;;;;;;;14.60;7.60;;;10.80;99.90;;;;;;5052749;28;20017;-73
2020/12/19 17:53:38;;;;;;;10.38;7.20;;;10.80;99.90;;;;;;5052720;28;20047;-74
2020/12/19 17:56:04;;;;;;;12.02;6.75;;;10.80;99.90;;;;;;5052678;28;20082;-74
2020/12/19 17:58:29;;;;;;;13.80;6.80;;;10.80;99.90;;;;;;5052298;28;20476;-73
2020/12/19 18:00:56;;;;;;;12.15;7.03;;;10.90;99.90;;;;;;5052572;28;20029;-75
2020/12/19 18:03:22;;;;;;;11.90;7.18;;;10.80;99.90;;;;;;5052001;28;20071;-75